Current Conditions
Partly Cloudy
Conditions



Pressure
1010.84 (hPa) - 29.85 (inHG)
Visibility

9.7 (km) - 6.0 (miles)
Temperature
18  °C
Temperature
15  °C
Dewpoint
83  %
 Humidity
Wind Speed
14  km/h
8  kts
9  mph
4.0  m/s
Wind Direction
N
45°
E
90°
135°
S
180°
225°
W
270°
315°
 60°

East North
East
Airport Data
LIPI
Rivolto Air Base
Metar :LIPI 220855Z 06008KT 9999 FEW025 BKN030 18/15 Q1011 RMK BKN VIS MIN 9999 WIND THR06 08008KT WIND THR24 09009KT BLU
Wed 22nd May 10:55 am
Raw Metar Info
Raw METAR is the most common format in the world for the transmission of observational weather data. It is highly standardized through the International Civil Aviation Organization (ICAO), which allows it to be understood throughout most of the world.
API Info
Data Provided by
https://www.checkwx.com/weather/LIPI

Aviation Weather providing METAR, TAF, AIRMET, SIGMET and OUTLOOK Weather Reports
© Info
CSS/SVG/PHP scripts were developed by weather34 for use in the weather34 template © 2015-2024

Guide Info provided by Metar-Wikipedia